CheckWX is a tool to help pilots better visualize weather data.  It is not intended as a substitute for an official pre-flight weather briefing.

19:09:06 UTC

KLBX METAR
Texas Gulf Coast Regional Airport
Angleton/Lake Jackson, Texas, USA
Current

46 mins ago

KLBX 221823Z AUTO 15011KT 9SM OVC007 23/22 A2992 RMK AO2 T02330217
Observed
Feb-22 @ 18:23 UTC
Wind
  • 150° at 11 KTS
Visibility
9 SM
Flight Rules
IFR
Cloud Levels
  • Overcast at 700' AGL
Temperature
23°C / 73°F
Dewpoint
22°C / 72°F
Humidity
94%
Altimeter
29.92" Hg
Pressure
1013.22 hPa
Previous

1 hour ago

KLBX 221753Z AUTO 12009KT 7SM OVC003 22/21 A2993 RMK AO2 SLP134 T02170211 10217 20117 56007
Observed
Feb-22 @ 17:53 UTC
Wind
  • 120° at 9 KTS
Visibility
7 SM
Flight Rules
LIFR
Cloud Levels
  • Overcast at 300' AGL
Temperature
22°C / 72°F
Dewpoint
21°C / 70°F
Humidity
94%
Altimeter
29.93" Hg
Pressure
1013.4 hPa
Previous

2 hours ago

KLBX 221727Z AUTO 13008KT 3SM BR OVC002 20/20 A2994 RMK AO2 T02000200
Observed
Feb-22 @ 17:27 UTC
Wind
  • 130° at 8 KTS
Visibility
3 SM
Flight Rules
LIFR
Conditions
Mist
Cloud Levels
  • Overcast at 200' AGL
Temperature
20°C / 68°F
Dewpoint
20°C / 68°F
Humidity
100%
Altimeter
29.94" Hg
Pressure
1013.92 hPa